sensor_id;sensor_type;location;lat;lon;timestamp;pressure;altitude;pressure_sealevel;temperature;humidity
8298;BME280;4187;42.778;23.242;2023-03-24T00:00:09;95417.81;;;6.06;100.00
8298;BME280;4187;42.778;23.242;2023-03-24T00:02:39;95411.63;;;6.07;100.00
8298;BME280;4187;42.778;23.242;2023-03-24T00:05:07;95396.47;;;5.88;100.00
8298;BME280;4187;42.778;23.242;2023-03-24T00:07:36;95409.69;;;5.97;100.00
8298;BME280;4187;42.778;23.242;2023-03-24T00:10:07;95413.63;;;6.03;100.00
8298;BME280;4187;42.778;23.242;2023-03-24T00:12:35;95411.28;;;6.00;100.00
8298;BME280;4187;42.778;23.242;2023-03-24T00:15:04;95412.84;;;6.03;100.00
8298;BME280;4187;42.778;23.242;2023-03-24T00:17:32;95409.16;;;6.05;100.00
8298;BME280;4187;42.778;23.242;2023-03-24T00:20:01;95406.63;;;6.03;100.00
8298;BME280;4187;42.778;23.242;2023-03-24T00:22:32;95402.44;;;6.01;100.00
8298;BME280;4187;42.778;23.242;2023-03-24T00:24:58;95397.22;;;6.01;100.00
8298;BME280;4187;42.778;23.242;2023-03-24T00:27:30;95395.22;;;6.05;100.00
8298;BME280;4187;42.778;23.242;2023-03-24T00:30:02;95398.09;;;6.13;100.00
8298;BME280;4187;42.778;23.242;2023-03-24T00:32:29;95395.22;;;6.05;100.00
8298;BME280;4187;42.778;23.242;2023-03-24T00:34:56;95381.50;;;5.77;100.00
8298;BME280;4187;42.778;23.242;2023-03-24T00:37:24;95398.94;;;5.89;100.00
8298;BME280;4187;42.778;23.242;2023-03-24T00:39:52;95409.03;;;5.83;100.00
8298;BME280;4187;42.778;23.242;2023-03-24T00:42:18;95402.97;;;5.59;100.00
8298;BME280;4187;42.778;23.242;2023-03-24T00:44:48;95392.03;;;5.41;100.00
8298;BME280;4187;42.778;23.242;2023-03-24T00:47:14;95395.28;;;5.21;100.00
8298;BME280;4187;42.778;23.242;2023-03-24T00:49:42;95363.75;;;4.99;100.00
8298;BME280;4187;42.778;23.242;2023-03-24T00:52:09;95369.59;;;4.90;100.00
8298;BME280;4187;42.778;23.242;2023-03-24T00:54:37;95391.66;;;4.98;100.00
8298;BME280;4187;42.778;23.242;2023-03-24T00:57:05;95393.06;;;4.91;100.00
8298;BME280;4187;42.778;23.242;2023-03-24T00:59:33;95391.78;;;4.97;100.00
8298;BME280;4187;42.778;23.242;2023-03-24T01:02:04;95399.94;;;4.92;100.00
8298;BME280;4187;42.778;23.242;2023-03-24T01:04:30;95395.16;;;4.86;100.00
8298;BME280;4187;42.778;23.242;2023-03-24T01:07:00;95393.91;;;4.79;100.00
8298;BME280;4187;42.778;23.242;2023-03-24T01:09:27;95398.22;;;4.67;100.00
8298;BME280;4187;42.778;23.242;2023-03-24T01:11:54;95402.09;;;4.62;100.00
8298;BME280;4187;42.778;23.242;2023-03-24T01:14:21;95404.28;;;4.55;100.00
8298;BME280;4187;42.778;23.242;2023-03-24T01:16:48;95406.81;;;4.57;100.00
8298;BME280;4187;42.778;23.242;2023-03-24T01:19:18;95390.50;;;4.53;100.00
8298;BME280;4187;42.778;23.242;2023-03-24T01:21:45;95371.78;;;4.47;100.00
8298;BME280;4187;42.778;23.242;2023-03-24T01:24:12;95389.16;;;4.48;100.00
8298;BME280;4187;42.778;23.242;2023-03-24T01:26:39;95372.84;;;4.32;100.00
8298;BME280;4187;42.778;23.242;2023-03-24T01:29:06;95384.25;;;4.43;100.00
8298;BME280;4187;42.778;23.242;2023-03-24T01:31:33;95383.50;;;4.54;100.00
8298;BME280;4187;42.778;23.242;2023-03-24T01:34:01;95377.53;;;4.52;100.00
8298;BME280;4187;42.778;23.242;2023-03-24T01:36:29;95380.34;;;4.49;100.00
8298;BME280;4187;42.778;23.242;2023-03-24T01:38:56;95380.97;;;4.52;100.00
8298;BME280;4187;42.778;23.242;2023-03-24T01:41:26;95375.13;;;4.49;100.00
8298;BME280;4187;42.778;23.242;2023-03-24T01:43:53;95385.91;;;4.57;100.00
8298;BME280;4187;42.778;23.242;2023-03-24T01:46:21;95389.97;;;4.61;100.00
8298;BME280;4187;42.778;23.242;2023-03-24T01:48:51;95381.28;;;4.60;100.00
8298;BME280;4187;42.778;23.242;2023-03-24T01:51:21;95309.53;;;4.28;100.00
8298;BME280;4187;42.778;23.242;2023-03-24T01:53:54;95389.00;;;4.74;100.00
8298;BME280;4187;42.778;23.242;2023-03-24T01:56:22;95389.63;;;4.78;100.00
8298;BME280;4187;42.778;23.242;2023-03-24T01:58:52;95390.34;;;4.80;100.00
8298;BME280;4187;42.778;23.242;2023-03-24T02:01:22;95394.53;;;4.82;100.00
8298;BME280;4187;42.778;23.242;2023-03-24T02:03:51;95390.22;;;4.81;100.00
8298;BME280;4187;42.778;23.242;2023-03-24T02:06:18;95393.69;;;4.82;100.00
8298;BME280;4187;42.778;23.242;2023-03-24T02:08:51;95389.31;;;4.82;100.00
8298;BME280;4187;42.778;23.242;2023-03-24T02:11:20;95399.75;;;4.82;100.00
8298;BME280;4187;42.778;23.242;2023-03-24T02:13:47;95395.59;;;4.80;100.00
8298;BME280;4187;42.778;23.242;2023-03-24T02:16:35;95397.66;;;4.88;100.00
8298;BME280;4187;42.778;23.242;2023-03-24T02:19:22;95401.00;;;4.90;100.00
8298;BME280;4187;42.778;23.242;2023-03-24T02:22:22;95390.78;;;4.87;100.00
8298;BME280;4187;42.778;23.242;2023-03-24T02:25:27;95395.16;;;4.86;100.00
8298;BME280;4187;42.778;23.242;2023-03-24T02:28:10;95384.25;;;4.92;100.00
8298;BME280;4187;42.778;23.242;2023-03-24T02:31:00;95395.16;;;4.86;100.00
8298;BME280;4187;42.778;23.242;2023-03-24T02:37:15;95384.13;;;4.45;100.00
8298;BME280;4187;42.778;23.242;2023-03-24T02:40:00;95353.00;;;4.04;100.00
8298;BME280;4187;42.778;23.242;2023-03-24T02:42:43;95366.38;;;3.99;100.00
8298;BME280;4187;42.778;23.242;2023-03-24T02:45:22;95366.31;;;3.87;100.00
8298;BME280;4187;42.778;23.242;2023-03-24T02:48:01;95358.28;;;3.77;100.00
8298;BME280;4187;42.778;23.242;2023-03-24T02:50:35;95365.47;;;3.61;100.00
8298;BME280;4187;42.778;23.242;2023-03-24T02:53:07;95365.66;;;3.58;100.00
8298;BME280;4187;42.778;23.242;2023-03-24T02:55:42;95349.47;;;3.53;100.00
8298;BME280;4187;42.778;23.242;2023-03-24T02:58:14;95364.03;;;3.70;100.00
8298;BME280;4187;42.778;23.242;2023-03-24T03:00:45;95361.09;;;3.74;100.00
8298;BME280;4187;42.778;23.242;2023-03-24T03:03:16;95370.94;;;3.83;100.00
8298;BME280;4187;42.778;23.242;2023-03-24T03:05:48;95357.56;;;3.88;100.00
8298;BME280;4187;42.778;23.242;2023-03-24T03:08:19;95365.19;;;4.03;100.00
8298;BME280;4187;42.778;23.242;2023-03-24T03:10:50;95357.47;;;4.14;100.00
8298;BME280;4187;42.778;23.242;2023-03-24T03:13:22;95361.56;;;4.18;100.00
8298;BME280;4187;42.778;23.242;2023-03-24T03:15:53;95352.03;;;4.30;100.00
8298;BME280;4187;42.778;23.242;2023-03-24T03:18:25;95341.50;;;4.32;100.00
8298;BME280;4187;42.778;23.242;2023-03-24T03:20:59;95344.94;;;4.45;100.00
8298;BME280;4187;42.778;23.242;2023-03-24T03:23:34;95337.09;;;4.45;100.00
8298;BME280;4187;42.778;23.242;2023-03-24T03:26:05;95358.09;;;4.56;100.00
8298;BME280;4187;42.778;23.242;2023-03-24T03:28:36;95359.03;;;4.67;100.00
8298;BME280;4187;42.778;23.242;2023-03-24T03:31:07;95336.00;;;4.60;100.00
8298;BME280;4187;42.778;23.242;2023-03-24T03:33:43;95347.72;;;4.67;100.00
8298;BME280;4187;42.778;23.242;2023-03-24T03:36:16;95358.34;;;4.76;100.00
8298;BME280;4187;42.778;23.242;2023-03-24T03:38:50;95309.56;;;4.52;100.00
8298;BME280;4187;42.778;23.242;2023-03-24T03:41:21;95353.41;;;4.84;100.00
8298;BME280;4187;42.778;23.242;2023-03-24T03:43:48;95357.38;;;4.90;100.00
8298;BME280;4187;42.778;23.242;2023-03-24T03:46:16;95356.44;;;4.91;100.00
8298;BME280;4187;42.778;23.242;2023-03-24T03:48:44;95363.88;;;4.84;100.00
8298;BME280;4187;42.778;23.242;2023-03-24T03:51:12;95368.50;;;4.81;100.00
8298;BME280;4187;42.778;23.242;2023-03-24T03:53:43;95374.38;;;4.72;100.00
8298;BME280;4187;42.778;23.242;2023-03-24T03:56:13;95367.59;;;4.69;100.00
8298;BME280;4187;42.778;23.242;2023-03-24T03:58:44;95374.91;;;4.64;100.00
8298;BME280;4187;42.778;23.242;2023-03-24T04:01:15;95368.03;;;4.51;100.00
8298;BME280;4187;42.778;23.242;2023-03-24T04:06:54;95368.63;;;4.54;100.00
8298;BME280;4187;42.778;23.242;2023-03-24T04:09:36;95363.09;;;4.46;100.00
8298;BME280;4187;42.778;23.242;2023-03-24T04:12:25;95370.94;;;4.46;100.00
8298;BME280;4187;42.778;23.242;2023-03-24T04:18:19;95373.38;;;4.37;100.00
8298;BME280;4187;42.778;23.242;2023-03-24T04:20:55;95378.19;;;4.43;100.00
8298;BME280;4187;42.778;23.242;2023-03-24T04:23:31;95376.09;;;4.35;100.00
8298;BME280;4187;42.778;23.242;2023-03-24T04:26:10;95374.09;;;4.26;100.00
8298;BME280;4187;42.778;23.242;2023-03-24T04:28:48;95370.44;;;4.03;100.00
8298;BME280;4187;42.778;23.242;2023-03-24T04:31:27;95374.59;;;3.93;100.00
8298;BME280;4187;42.778;23.242;2023-03-24T04:33:57;95369.69;;;3.89;100.00
8298;BME280;4187;42.778;23.242;2023-03-24T04:36:33;95373.97;;;3.90;100.00
8298;BME280;4187;42.778;23.242;2023-03-24T04:39:08;95370.63;;;3.88;100.00
8298;BME280;4187;42.778;23.242;2023-03-24T04:41:37;95382.63;;;3.90;100.00
8298;BME280;4187;42.778;23.242;2023-03-24T04:44:05;95385.38;;;4.27;100.00
8298;BME280;4187;42.778;23.242;2023-03-24T04:46:34;95384.75;;;4.23;100.00
8298;BME280;4187;42.778;23.242;2023-03-24T04:49:01;95386.00;;;4.17;100.00
8298;BME280;4187;42.778;23.242;2023-03-24T04:51:28;95394.47;;;4.21;100.00
8298;BME280;4187;42.778;23.242;2023-03-24T04:53:55;95392.78;;;4.20;100.00
8298;BME280;4187;42.778;23.242;2023-03-24T04:56:28;95403.97;;;4.22;100.00
8298;BME280;4187;42.778;23.242;2023-03-24T04:58:56;95399.59;;;4.22;100.00
8298;BME280;4187;42.778;23.242;2023-03-24T05:01:24;95410.56;;;4.28;100.00
8298;BME280;4187;42.778;23.242;2023-03-24T05:03:55;95406.91;;;4.30;100.00
8298;BME280;4187;42.778;23.242;2023-03-24T05:06:22;95393.31;;;4.25;100.00
8298;BME280;4187;42.778;23.242;2023-03-24T05:08:49;95416.53;;;4.42;100.00
8298;BME280;4187;42.778;23.242;2023-03-24T05:11:18;95413.50;;;4.48;100.00
8298;BME280;4187;42.778;23.242;2023-03-24T05:13:45;95423.84;;;4.50;100.00
8298;BME280;4187;42.778;23.242;2023-03-24T05:16:13;95417.28;;;4.57;100.00
8298;BME280;4187;42.778;23.242;2023-03-24T05:18:40;95419.63;;;4.60;100.00
8298;BME280;4187;42.778;23.242;2023-03-24T05:21:08;95418.09;;;4.70;100.00
8298;BME280;4187;42.778;23.242;2023-03-24T05:23:35;95418.47;;;4.76;100.00
8298;BME280;4187;42.778;23.242;2023-03-24T05:26:03;95421.00;;;4.78;100.00
8298;BME280;4187;42.778;23.242;2023-03-24T05:28:30;95419.84;;;4.95;100.00
8298;BME280;4187;42.778;23.242;2023-03-24T05:30:57;95428.91;;;5.02;100.00
8298;BME280;4187;42.778;23.242;2023-03-24T05:33:24;95423.63;;;5.14;100.00
8298;BME280;4187;42.778;23.242;2023-03-24T05:35:51;95426.66;;;5.21;100.00
8298;BME280;4187;42.778;23.242;2023-03-24T05:38:19;95408.84;;;5.26;100.00
8298;BME280;4187;42.778;23.242;2023-03-24T05:40:46;95435.88;;;5.50;100.00
8298;BME280;4187;42.778;23.242;2023-03-24T05:43:13;95426.31;;;5.62;100.00
8298;BME280;4187;42.778;23.242;2023-03-24T05:45:40;95420.38;;;5.71;100.00
8298;BME280;4187;42.778;23.242;2023-03-24T05:48:07;95427.31;;;5.95;100.00
8298;BME280;4187;42.778;23.242;2023-03-24T05:50:34;95434.16;;;6.09;100.00
8298;BME280;4187;42.778;23.242;2023-03-24T05:53:01;95432.28;;;6.22;100.00
8298;BME280;4187;42.778;23.242;2023-03-24T05:55:29;95426.38;;;6.42;100.00
8298;BME280;4187;42.778;23.242;2023-03-24T05:57:56;95405.75;;;6.49;100.00
8298;BME280;4187;42.778;23.242;2023-03-24T06:00:26;95434.78;;;6.81;100.00
8298;BME280;4187;42.778;23.242;2023-03-24T06:02:55;95435.50;;;7.05;100.00
8298;BME280;4187;42.778;23.242;2023-03-24T06:05:22;95430.47;;;7.24;100.00
8298;BME280;4187;42.778;23.242;2023-03-24T06:07:49;95423.75;;;7.42;100.00
8298;BME280;4187;42.778;23.242;2023-03-24T06:10:16;95436.84;;;7.64;100.00
8298;BME280;4187;42.778;23.242;2023-03-24T06:12:45;95440.75;;;7.81;100.00
8298;BME280;4187;42.778;23.242;2023-03-24T06:15:11;95434.63;;;7.92;100.00
8298;BME280;4187;42.778;23.242;2023-03-24T06:17:42;95436.69;;;8.09;100.00
8298;BME280;4187;42.778;23.242;2023-03-24T06:20:10;95441.88;;;8.31;100.00
8298;BME280;4187;42.778;23.242;2023-03-24T06:22:41;95436.50;;;8.53;100.00
8298;BME280;4187;42.778;23.242;2023-03-24T06:25:08;95421.50;;;8.65;100.00
8298;BME280;4187;42.778;23.242;2023-03-24T06:27:35;95448.66;;;8.95;100.00
8298;BME280;4187;42.778;23.242;2023-03-24T06:30:05;95422.47;;;8.94;100.00
8298;BME280;4187;42.778;23.242;2023-03-24T06:32:33;95449.50;;;9.26;100.00
8298;BME280;4187;42.778;23.242;2023-03-24T06:35:00;95434.13;;;9.31;100.00
8298;BME280;4187;42.778;23.242;2023-03-24T06:37:27;95442.38;;;9.57;100.00
8298;BME280;4187;42.778;23.242;2023-03-24T06:39:54;95456.28;;;9.69;100.00
8298;BME280;4187;42.778;23.242;2023-03-24T06:42:20;95453.94;;;9.85;100.00
8298;BME280;4187;42.778;23.242;2023-03-24T06:44:47;95457.72;;;10.01;100.00
8298;BME280;4187;42.778;23.242;2023-03-24T06:47:17;95456.66;;;10.23;100.00
8298;BME280;4187;42.778;23.242;2023-03-24T06:49:43;95465.00;;;10.38;100.00
8298;BME280;4187;42.778;23.242;2023-03-24T06:52:10;95462.09;;;10.50;100.00
8298;BME280;4187;42.778;23.242;2023-03-24T06:54:37;95462.06;;;10.60;100.00
8298;BME280;4187;42.778;23.242;2023-03-24T06:57:04;95464.72;;;10.69;100.00
8298;BME280;4187;42.778;23.242;2023-03-24T06:59:31;95461.50;;;10.75;100.00
8298;BME280;4187;42.778;23.242;2023-03-24T07:01:57;95470.78;;;10.89;100.00
8298;BME280;4187;42.778;23.242;2023-03-24T07:04:27;95476.56;;;11.12;100.00
8298;BME280;4187;42.778;23.242;2023-03-24T07:07:01;95470.50;;;11.38;100.00
8298;BME280;4187;42.778;23.242;2023-03-24T07:09:28;95474.19;;;11.55;100.00
8298;BME280;4187;42.778;23.242;2023-03-24T07:11:54;95475.41;;;11.70;100.00
8298;BME280;4187;42.778;23.242;2023-03-24T07:14:21;95480.47;;;11.81;100.00
8298;BME280;4187;42.778;23.242;2023-03-24T07:16:50;95471.13;;;11.87;100.00
8298;BME280;4187;42.778;23.242;2023-03-24T07:19:17;95463.53;;;12.19;100.00
8298;BME280;4187;42.778;23.242;2023-03-24T07:21:46;95472.69;;;12.60;100.00
8298;BME280;4187;42.778;23.242;2023-03-24T07:24:14;95473.97;;;12.91;100.00
8298;BME280;4187;42.778;23.242;2023-03-24T07:26:41;95470.59;;;13.25;100.00
8298;BME280;4187;42.778;23.242;2023-03-24T07:29:08;95483.41;;;13.37;100.00
8298;BME280;4187;42.778;23.242;2023-03-24T07:31:35;95483.97;;;13.49;100.00
8298;BME280;4187;42.778;23.242;2023-03-24T07:34:03;95480.06;;;13.61;100.00
8298;BME280;4187;42.778;23.242;2023-03-24T07:36:30;95451.78;;;13.44;100.00
8298;BME280;4187;42.778;23.242;2023-03-24T07:38:58;95481.59;;;13.71;100.00
8298;BME280;4187;42.778;23.242;2023-03-24T07:41:25;95478.44;;;13.76;100.00
8298;BME280;4187;42.778;23.242;2023-03-24T07:43:53;95468.19;;;13.73;100.00
8298;BME280;4187;42.778;23.242;2023-03-24T07:46:20;95477.34;;;13.78;100.00
8298;BME280;4187;42.778;23.242;2023-03-24T07:48:47;95480.16;;;13.85;100.00
8298;BME280;4187;42.778;23.242;2023-03-24T07:51:14;95475.09;;;14.00;100.00
8298;BME280;4187;42.778;23.242;2023-03-24T07:53:40;95474.41;;;14.06;100.00
8298;BME280;4187;42.778;23.242;2023-03-24T07:56:11;95467.59;;;14.03;100.00
8298;BME280;4187;42.778;23.242;2023-03-24T07:58:38;95470.66;;;14.16;100.00
8298;BME280;4187;42.778;23.242;2023-03-24T08:01:05;95446.78;;;14.16;100.00
8298;BME280;4187;42.778;23.242;2023-03-24T08:03:34;95459.31;;;14.56;100.00
8298;BME280;4187;42.778;23.242;2023-03-24T08:06:00;95465.28;;;14.82;99.21
8298;BME280;4187;42.778;23.242;2023-03-24T08:08:27;95460.16;;;14.97;99.14
8298;BME280;4187;42.778;23.242;2023-03-24T08:10:54;95453.47;;;15.17;98.86
8298;BME280;4187;42.778;23.242;2023-03-24T08:13:22;95455.09;;;15.42;99.13
8298;BME280;4187;42.778;23.242;2023-03-24T08:15:49;95446.22;;;15.66;98.01
8298;BME280;4187;42.778;23.242;2023-03-24T08:18:17;95448.63;;;15.92;96.45
8298;BME280;4187;42.778;23.242;2023-03-24T08:20:45;95450.34;;;16.15;94.56
8298;BME280;4187;42.778;23.242;2023-03-24T08:23:12;95440.25;;;16.34;94.82
8298;BME280;4187;42.778;23.242;2023-03-24T08:25:39;95446.06;;;16.37;91.63
8298;BME280;4187;42.778;23.242;2023-03-24T08:28:06;95435.47;;;16.29;92.75
8298;BME280;4187;42.778;23.242;2023-03-24T08:30:35;95426.69;;;16.21;99.67
8298;BME280;4187;42.778;23.242;2023-03-24T08:33:03;95425.44;;;16.31;96.27
8298;BME280;4187;42.778;23.242;2023-03-24T08:35:32;95426.34;;;16.54;95.45
8298;BME280;4187;42.778;23.242;2023-03-24T08:37:59;95423.50;;;16.79;92.22
8298;BME280;4187;42.778;23.242;2023-03-24T08:40:28;95428.28;;;16.98;91.78
8298;BME280;4187;42.778;23.242;2023-03-24T08:42:57;95424.56;;;17.07;89.91
8298;BME280;4187;42.778;23.242;2023-03-24T08:45:26;95399.75;;;17.21;90.90
8298;BME280;4187;42.778;23.242;2023-03-24T08:47:57;95425.03;;;17.62;89.25
8298;BME280;4187;42.778;23.242;2023-03-24T08:50:27;95418.00;;;17.90;85.04
8298;BME280;4187;42.778;23.242;2023-03-24T08:52:55;95385.47;;;18.02;88.00
8298;BME280;4187;42.778;23.242;2023-03-24T08:55:23;95395.78;;;18.40;85.02
8298;BME280;4187;42.778;23.242;2023-03-24T08:57:50;95392.44;;;18.53;83.38
8298;BME280;4187;42.778;23.242;2023-03-24T09:00:19;95393.47;;;18.73;85.66
8298;BME280;4187;42.778;23.242;2023-03-24T09:02:48;95394.34;;;18.80;81.82
8298;BME280;4187;42.778;23.242;2023-03-24T09:05:18;95386.00;;;18.69;82.20
8298;BME280;4187;42.778;23.242;2023-03-24T09:07:45;95385.34;;;18.88;82.45
8298;BME280;4187;42.778;23.242;2023-03-24T09:10:13;95385.53;;;19.07;81.23
8298;BME280;4187;42.778;23.242;2023-03-24T09:12:41;95376.84;;;19.33;82.22
8298;BME280;4187;42.778;23.242;2023-03-24T09:15:10;95376.81;;;19.54;80.60
8298;BME280;4187;42.778;23.242;2023-03-24T09:17:38;95371.59;;;19.87;83.03
8298;BME280;4187;42.778;23.242;2023-03-24T09:20:08;95371.91;;;20.12;82.68
8298;BME280;4187;42.778;23.242;2023-03-24T09:22:37;95372.22;;;20.37;79.15
8298;BME280;4187;42.778;23.242;2023-03-24T09:25:05;95364.00;;;20.58;78.24
8298;BME280;4187;42.778;23.242;2023-03-24T09:27:32;95365.69;;;20.72;78.40
8298;BME280;4187;42.778;23.242;2023-03-24T09:29:59;95335.75;;;20.68;77.83
8298;BME280;4187;42.778;23.242;2023-03-24T09:32:26;95363.66;;;21.00;78.51
8298;BME280;4187;42.778;23.242;2023-03-24T09:34:53;95356.44;;;21.20;77.41
8298;BME280;4187;42.778;23.242;2023-03-24T09:37:20;95343.03;;;21.07;75.76
8298;BME280;4187;42.778;23.242;2023-03-24T09:39:49;95349.84;;;21.16;73.80
8298;BME280;4187;42.778;23.242;2023-03-24T09:42:20;95350.03;;;20.88;74.70
8298;BME280;4187;42.778;23.242;2023-03-24T09:44:53;95341.13;;;20.49;75.14
8298;BME280;4187;42.778;23.242;2023-03-24T09:47:27;95342.97;;;20.48;84.33
8298;BME280;4187;42.778;23.242;2023-03-24T09:49:57;95334.13;;;20.67;79.70
8298;BME280;4187;42.778;23.242;2023-03-24T09:52:29;95337.84;;;20.79;76.63
8298;BME280;4187;42.778;23.242;2023-03-24T09:54:59;95335.16;;;20.79;74.20
8298;BME280;4187;42.778;23.242;2023-03-24T09:57:33;95331.03;;;20.64;74.12
8298;BME280;4187;42.778;23.242;2023-03-24T10:00:14;95335.38;;;20.65;73.58
8298;BME280;4187;42.778;23.242;2023-03-24T10:02:48;95313.31;;;20.76;73.47
8298;BME280;4187;42.778;23.242;2023-03-24T10:05:22;95323.81;;;21.17;74.55
8298;BME280;4187;42.778;23.242;2023-03-24T10:07:56;95318.78;;;21.60;78.64
8298;BME280;4187;42.778;23.242;2023-03-24T10:10:32;95308.72;;;21.93;77.45
8298;BME280;4187;42.778;23.242;2023-03-24T10:13:05;95308.16;;;22.22;75.31
8298;BME280;4187;42.778;23.242;2023-03-24T10:15:35;95290.59;;;22.20;75.43
8298;BME280;4187;42.778;23.242;2023-03-24T10:18:17;95300.31;;;22.52;74.17
8298;BME280;4187;42.778;23.242;2023-03-24T10:20:51;95285.13;;;22.71;70.90
8298;BME280;4187;42.778;23.242;2023-03-24T10:23:24;95302.69;;;22.98;71.07
8298;BME280;4187;42.778;23.242;2023-03-24T10:26:00;95300.78;;;23.23;71.15
8298;BME280;4187;42.778;23.242;2023-03-24T10:28:34;95300.19;;;23.46;65.90
8298;BME280;4187;42.778;23.242;2023-03-24T10:31:09;95290.81;;;23.48;65.86
8298;BME280;4187;42.778;23.242;2023-03-24T10:33:41;95289.94;;;23.54;66.66
8298;BME280;4187;42.778;23.242;2023-03-24T10:36:11;95287.28;;;23.66;68.50
8298;BME280;4187;42.778;23.242;2023-03-24T10:38:39;95252.28;;;23.66;66.28
8298;BME280;4187;42.778;23.242;2023-03-24T10:41:12;95278.09;;;23.92;64.77
8298;BME280;4187;42.778;23.242;2023-03-24T10:43:42;95281.06;;;24.02;64.03
8298;BME280;4187;42.778;23.242;2023-03-24T10:46:11;95253.81;;;23.92;64.00
8298;BME280;4187;42.778;23.242;2023-03-24T10:48:44;95277.81;;;24.29;63.46
8298;BME280;4187;42.778;23.242;2023-03-24T10:51:14;95273.38;;;24.35;56.97
8298;BME280;4187;42.778;23.242;2023-03-24T10:53:41;95281.97;;;24.44;59.74
8298;BME280;4187;42.778;23.242;2023-03-24T10:56:15;95282.47;;;24.64;56.35
8298;BME280;4187;42.778;23.242;2023-03-24T10:58:43;95276.09;;;24.88;57.29
8298;BME280;4187;42.778;23.242;2023-03-24T11:01:23;95277.03;;;25.05;58.13
8298;BME280;4187;42.778;23.242;2023-03-24T11:03:51;95265.78;;;25.08;54.11
8298;BME280;4187;42.778;23.242;2023-03-24T11:06:23;95272.09;;;25.25;49.81
8298;BME280;4187;42.778;23.242;2023-03-24T11:09:08;95265.16;;;25.06;51.38
8298;BME280;4187;42.778;23.242;2023-03-24T11:11:37;95265.75;;;24.96;51.50
8298;BME280;4187;42.778;23.242;2023-03-24T11:14:18;95255.31;;;24.88;51.26
8298;BME280;4187;42.778;23.242;2023-03-24T11:16:47;95247.91;;;24.95;49.87
8298;BME280;4187;42.778;23.242;2023-03-24T11:19:17;95249.56;;;25.08;45.32
8298;BME280;4187;42.778;23.242;2023-03-24T11:21:45;95239.13;;;25.46;45.87
8298;BME280;4187;42.778;23.242;2023-03-24T11:24:14;95231.19;;;25.68;45.21
8298;BME280;4187;42.778;23.242;2023-03-24T11:26:48;95220.34;;;25.80;45.02
8298;BME280;4187;42.778;23.242;2023-03-24T11:29:18;95176.41;;;25.73;45.06
8298;BME280;4187;42.778;23.242;2023-03-24T11:31:52;95216.72;;;26.02;40.58
8298;BME280;4187;42.778;23.242;2023-03-24T11:34:22;95211.56;;;25.73;42.09
8298;BME280;4187;42.778;23.242;2023-03-24T11:36:51;95211.78;;;25.71;43.72
8298;BME280;4187;42.778;23.242;2023-03-24T11:39:21;95181.19;;;25.54;39.41
8298;BME280;4187;42.778;23.242;2023-03-24T11:42:03;95199.78;;;25.79;40.20
8298;BME280;4187;42.778;23.242;2023-03-24T11:44:40;95202.28;;;25.97;36.49
8298;BME280;4187;42.778;23.242;2023-03-24T11:47:12;95194.84;;;26.04;38.49
8298;BME280;4187;42.778;23.242;2023-03-24T11:49:43;95193.59;;;26.23;38.20
8298;BME280;4187;42.778;23.242;2023-03-24T11:52:19;95193.13;;;26.43;41.64
8298;BME280;4187;42.778;23.242;2023-03-24T11:54:48;95185.84;;;26.60;40.79
8298;BME280;4187;42.778;23.242;2023-03-24T11:57:23;95175.25;;;26.75;40.11
8298;BME280;4187;42.778;23.242;2023-03-24T11:59:56;95166.56;;;26.73;37.39
8298;BME280;4187;42.778;23.242;2023-03-24T12:02:36;95173.13;;;26.77;35.31
8298;BME280;4187;42.778;23.242;2023-03-24T12:05:20;95175.75;;;26.72;36.19
8298;BME280;4187;42.778;23.242;2023-03-24T12:08:11;95173.03;;;26.39;35.07
8298;BME280;4187;42.778;23.242;2023-03-24T12:10:52;95168.03;;;26.31;36.05
8298;BME280;4187;42.778;23.242;2023-03-24T12:13:32;95148.03;;;26.32;36.30
8298;BME280;4187;42.778;23.242;2023-03-24T12:19:09;95126.16;;;26.17;31.58
8298;BME280;4187;42.778;23.242;2023-03-24T12:21:50;95148.38;;;26.35;26.80
8298;BME280;4187;42.778;23.242;2023-03-24T12:24:29;95145.38;;;26.20;27.11
8298;BME280;4187;42.778;23.242;2023-03-24T12:27:02;95141.88;;;25.91;29.25
8298;BME280;4187;42.778;23.242;2023-03-24T12:29:40;95133.16;;;25.73;31.94
8298;BME280;4187;42.778;23.242;2023-03-24T12:32:17;95130.59;;;25.94;32.58
8298;BME280;4187;42.778;23.242;2023-03-24T12:35:19;95133.31;;;26.11;31.07
8298;BME280;4187;42.778;23.242;2023-03-24T12:37:58;95121.88;;;26.21;31.71
8298;BME280;4187;42.778;23.242;2023-03-24T12:43:29;95113.09;;;26.47;28.07
8298;BME280;4187;42.778;23.242;2023-03-24T12:46:10;95091.97;;;26.27;28.73
8298;BME280;4187;42.778;23.242;2023-03-24T12:48:54;95094.66;;;26.44;29.23
8298;BME280;4187;42.778;23.242;2023-03-24T12:51:34;95100.56;;;26.41;31.63
8298;BME280;4187;42.778;23.242;2023-03-24T12:54:23;95078.09;;;26.40;31.78
8298;BME280;4187;42.778;23.242;2023-03-24T12:56:57;95090.09;;;26.83;31.54
8298;BME280;4187;42.778;23.242;2023-03-24T12:59:29;95095.91;;;26.91;30.39
8298;BME280;4187;42.778;23.242;2023-03-24T13:02:04;95083.84;;;26.82;30.52
8298;BME280;4187;42.778;23.242;2023-03-24T13:04:38;95086.06;;;26.68;33.74
8298;BME280;4187;42.778;23.242;2023-03-24T13:07:10;95084.75;;;26.71;32.54
8298;BME280;4187;42.778;23.242;2023-03-24T13:09:44;95080.97;;;26.72;32.35
8298;BME280;4187;42.778;23.242;2023-03-24T13:12:15;95069.66;;;26.75;34.27
8298;BME280;4187;42.778;23.242;2023-03-24T13:14:49;95069.09;;;26.73;33.42
8298;BME280;4187;42.778;23.242;2023-03-24T13:17:21;95066.06;;;26.69;32.77
8298;BME280;4187;42.778;23.242;2023-03-24T13:19:50;95071.34;;;26.59;31.69
8298;BME280;4187;42.778;23.242;2023-03-24T13:22:21;95069.03;;;26.01;30.29
8298;BME280;4187;42.778;23.242;2023-03-24T13:24:51;95064.50;;;25.45;30.97
8298;BME280;4187;42.778;23.242;2023-03-24T13:27:22;95068.22;;;25.28;31.05
8298;BME280;4187;42.778;23.242;2023-03-24T13:32:57;94998.34;;;24.40;31.65
8298;BME280;4187;42.778;23.242;2023-03-24T13:35:35;95053.81;;;24.59;32.54
8298;BME280;4187;42.778;23.242;2023-03-24T13:38:12;95052.50;;;24.38;32.05
8298;BME280;4187;42.778;23.242;2023-03-24T13:40:45;95045.03;;;24.29;32.60
8298;BME280;4187;42.778;23.242;2023-03-24T13:43:17;95041.28;;;24.30;32.73
8298;BME280;4187;42.778;23.242;2023-03-24T13:45:49;95046.78;;;24.23;32.58
8298;BME280;4187;42.778;23.242;2023-03-24T13:48:25;95045.22;;;24.04;33.20